Time;durP1;ratioP1;P1;durP2;ratioP2;P2;SDS_P1;SDS_P2;PMS_P1;PMS_P2;Temp;Humidity;BMP_temperature;BMP_pressure;BME280_temperature;BME280_humidity;BME280_pressure;Samples;Min_cycle;Max_cycle;Signal;HPM_P1;HPM_P2
2021/09/11 00:00:56;;;;;;;3.47;2.10;;;19.00;98.00;;;;;;5111063;28;20513;-69
2021/09/11 00:03:23;;;;;;;2.70;2.30;;;19.00;98.00;;;;;;5112406;28;20546;-69
2021/09/11 00:05:50;;;;;;;3.30;2.10;;;19.10;98.00;;;;;;5111925;28;20871;-68
2021/09/11 00:08:17;;;;;;;3.00;2.10;;;19.10;98.00;;;;;;5112133;28;20486;-69
2021/09/11 00:10:44;;;;;;;2.00;1.90;;;19.00;98.00;;;;;;5111824;28;20863;-68
2021/09/11 00:13:11;;;;;;;2.00;1.70;;;19.00;98.00;;;;;;5111876;28;20514;-69
2021/09/11 00:15:38;;;;;;;1.80;1.67;;;19.10;98.00;;;;;;5111756;28;20941;-69
2021/09/11 00:18:07;;;;;;;2.57;1.60;;;19.10;98.00;;;;;;5111808;28;20502;-70
2021/09/11 00:20:34;;;;;;;2.00;1.67;;;19.10;98.00;;;;;;5111696;28;20547;-69
2021/09/11 00:23:02;;;;;;;3.13;2.10;;;19.10;98.00;;;;;;5111638;28;20511;-69
2021/09/11 00:25:30;;;;;;;1.93;1.90;;;19.10;98.00;;;;;;5111544;28;20451;-69
2021/09/11 00:27:57;;;;;;;2.40;1.80;;;19.10;98.00;;;;;;5111540;28;20451;-69
2021/09/11 00:30:24;;;;;;;1.60;1.50;;;19.20;98.00;;;;;;5111470;28;20459;-68
2021/09/11 00:32:51;;;;;;;1.87;1.60;;;19.10;98.00;;;;;;5111500;28;20521;-70
2021/09/11 00:35:22;;;;;;;2.47;2.07;;;19.00;98.00;;;;;;5111368;28;20515;-70
2021/09/11 00:37:49;;;;;;;2.63;1.80;;;19.00;98.00;;;;;;5111559;28;20459;-68
2021/09/11 00:40:18;;;;;;;2.20;2.00;;;19.10;98.00;;;;;;5111437;28;20700;-68
2021/09/11 00:42:48;;;;;;;2.27;1.90;;;19.10;98.00;;;;;;5111444;28;20512;-69
2021/09/11 00:45:15;;;;;;;1.80;1.57;;;19.10;98.00;;;;;;5111288;28;20525;-69
2021/09/11 00:47:42;;;;;;;3.10;1.70;;;19.10;98.00;;;;;;5111304;28;20961;-69
2021/09/11 00:50:10;;;;;;;1.90;1.73;;;19.00;98.00;;;;;;5111492;28;20487;-70
2021/09/11 00:52:40;;;;;;;2.40;1.80;;;19.00;98.00;;;;;;5111222;28;20479;-68
2021/09/11 00:55:08;;;;;;;3.23;1.83;;;19.00;98.00;;;;;;5110997;28;20571;-68
2021/09/11 00:57:38;;;;;;;2.73;1.73;;;19.00;98.00;;;;;;5111341;28;20451;-69
2021/09/11 01:00:06;;;;;;;2.50;1.80;;;19.00;98.00;;;;;;5111069;28;20467;-68
2021/09/11 01:02:33;;;;;;;3.00;2.43;;;19.00;98.00;;;;;;5111458;28;20459;-69
2021/09/11 01:05:00;;;;;;;3.30;1.80;;;19.10;98.00;;;;;;5110984;28;20547;-69
2021/09/11 01:07:28;;;;;;;2.70;2.10;;;19.00;98.00;;;;;;5111206;28;20455;-69
2021/09/11 01:09:56;;;;;;;1.83;1.77;;;19.10;98.00;;;;;;5111025;28;20459;-68
2021/09/11 01:12:25;;;;;;;1.80;1.70;;;19.10;98.00;;;;;;5111341;28;20486;-69
2021/09/11 01:14:52;;;;;;;2.90;2.03;;;19.00;98.00;;;;;;5109853;28;21011;-69
2021/09/11 01:17:21;;;;;;;2.57;2.27;;;18.80;98.00;;;;;;5111327;28;20505;-70
2021/09/11 01:19:47;;;;;;;3.10;1.73;;;18.80;98.00;;;;;;5111160;28;20493;-68
2021/09/11 01:22:15;;;;;;;2.30;1.83;;;18.90;98.00;;;;;;5111379;28;20483;-69
2021/09/11 01:24:57;;;;;;;1.87;1.80;;;19.00;98.00;;;;;;5111167;28;20548;-68
2021/09/11 01:27:25;;;;;;;2.00;1.90;;;18.90;98.00;;;;;;5114346;28;20490;-68
2021/09/11 01:29:53;;;;;;;2.80;1.93;;;19.10;98.00;;;;;;5114812;28;20523;-70
2021/09/11 01:32:21;;;;;;;1.60;1.50;;;19.10;98.00;;;;;;5115000;28;20454;-68
2021/09/11 01:34:48;;;;;;;2.70;1.97;;;19.20;98.00;;;;;;5114779;28;20511;-69
2021/09/11 01:37:15;;;;;;;4.13;2.10;;;19.30;98.00;;;;;;5115028;28;20524;-68
2021/09/11 01:39:46;;;;;;;2.03;1.70;;;19.20;98.00;;;;;;5114969;28;20541;-69
2021/09/11 01:42:15;;;;;;;2.50;2.00;;;19.10;98.00;;;;;;5114841;28;20454;-69
2021/09/11 01:44:46;;;;;;;2.57;2.00;;;19.10;98.00;;;;;;5114742;28;20500;-68
2021/09/11 01:47:14;;;;;;;2.53;1.50;;;19.10;98.00;;;;;;5114710;28;20451;-69
2021/09/11 01:49:43;;;;;;;2.13;1.70;;;19.10;98.00;;;;;;5114703;28;20447;-68
2021/09/11 01:52:10;;;;;;;2.27;1.43;;;19.00;98.00;;;;;;5114569;28;20455;-69
2021/09/11 01:54:39;;;;;;;2.47;2.00;;;19.10;98.00;;;;;;5114629;28;20510;-70
2021/09/11 01:57:07;;;;;;;2.30;1.83;;;19.20;98.00;;;;;;5114061;28;20487;-68
2021/09/11 01:59:35;;;;;;;4.53;2.23;;;19.20;98.00;;;;;;5114745;28;20539;-68
2021/09/11 02:02:04;;;;;;;2.20;1.80;;;19.30;98.00;;;;;;5114361;28;20450;-69
2021/09/11 02:04:31;;;;;;;2.17;2.03;;;19.10;98.00;;;;;;5114402;28;20483;-69
2021/09/11 02:06:58;;;;;;;2.30;1.93;;;19.00;98.00;;;;;;5114360;27;20928;-69
2021/09/11 02:09:25;;;;;;;2.07;1.63;;;19.00;98.00;;;;;;5114157;28;20446;-69
2021/09/11 02:11:52;;;;;;;2.00;1.90;;;19.00;98.00;;;;;;5114124;28;20512;-68
2021/09/11 02:14:19;;;;;;;2.27;1.77;;;19.00;98.00;;;;;;5114133;28;20584;-69
2021/09/11 02:16:49;;;;;;;3.27;2.07;;;19.10;98.00;;;;;;5114096;28;20520;-71
2021/09/11 02:19:16;;;;;;;2.27;1.70;;;19.00;98.00;;;;;;5113780;28;20492;-69
2021/09/11 02:21:43;;;;;;;2.23;1.90;;;19.10;98.00;;;;;;5114195;28;20454;-70
2021/09/11 02:24:10;;;;;;;1.73;1.60;;;19.10;98.00;;;;;;5114292;28;20463;-69
2021/09/11 02:26:37;;;;;;;2.20;1.57;;;19.10;98.00;;;;;;5113900;28;20943;-69
2021/09/11 02:29:05;;;;;;;2.43;1.83;;;19.10;98.00;;;;;;5114001;28;20530;-68
2021/09/11 02:31:32;;;;;;;2.20;1.80;;;19.10;98.00;;;;;;5113729;28;20870;-68
2021/09/11 02:34:00;;;;;;;2.47;2.27;;;19.10;98.00;;;;;;5113716;28;20996;-69
2021/09/11 02:36:27;;;;;;;2.53;1.70;;;19.00;98.00;;;;;;5113778;28;20539;-70
2021/09/11 02:38:55;;;;;;;2.40;1.80;;;19.20;98.00;;;;;;5113002;28;20486;-67
2021/09/11 02:41:22;;;;;;;2.67;1.90;;;19.20;98.00;;;;;;5113705;28;20546;-69
2021/09/11 02:43:49;;;;;;;2.43;2.03;;;19.10;98.00;;;;;;5113765;28;20520;-68
2021/09/11 02:46:16;;;;;;;3.10;2.10;;;19.00;98.00;;;;;;5112233;28;20454;-68
2021/09/11 02:48:44;;;;;;;2.63;2.13;;;19.00;98.00;;;;;;5113694;28;20549;-69
2021/09/11 02:51:14;;;;;;;1.63;1.50;;;19.00;98.00;;;;;;5112839;28;20458;-69
2021/09/11 02:53:42;;;;;;;3.60;1.80;;;19.00;98.00;;;;;;5113187;28;20537;-71
2021/09/11 02:56:09;;;;;;;2.40;1.80;;;19.00;98.00;;;;;;5112024;28;20470;-69
2021/09/11 02:58:36;;;;;;;2.10;1.70;;;19.10;98.00;;;;;;5113283;28;21012;-68
2021/09/11 03:01:03;;;;;;;1.80;1.73;;;19.00;98.00;;;;;;5113057;28;21035;-68
2021/09/11 03:03:30;;;;;;;3.63;1.70;;;18.90;98.00;;;;;;5113227;28;20815;-69
2021/09/11 03:05:57;;;;;;;2.37;1.93;;;19.00;98.00;;;;;;5112966;28;20456;-69
2021/09/11 03:08:25;;;;;;;3.20;2.43;;;19.00;98.00;;;;;;5113145;28;20516;-69
2021/09/11 03:10:53;;;;;;;2.50;2.30;;;19.00;98.00;;;;;;5113034;28;20515;-68
2021/09/11 03:13:20;;;;;;;2.07;1.80;;;19.00;98.00;;;;;;5111869;28;20453;-68
2021/09/11 03:15:47;;;;;;;3.47;2.13;;;19.00;98.00;;;;;;5112777;28;20510;-70
2021/09/11 03:18:14;;;;;;;1.70;1.43;;;18.90;98.00;;;;;;5112950;28;20486;-68
2021/09/11 03:20:44;;;;;;;3.00;1.77;;;19.10;98.00;;;;;;5112768;28;20855;-70
2021/09/11 03:23:11;;;;;;;1.70;1.60;;;19.00;98.00;;;;;;5112115;28;20447;-69
2021/09/11 03:25:39;;;;;;;2.40;1.70;;;19.00;98.00;;;;;;5112779;28;20483;-70
2021/09/11 03:28:06;;;;;;;2.53;2.13;;;19.00;98.00;;;;;;5113183;28;20540;-69
2021/09/11 03:30:33;;;;;;;2.20;1.80;;;19.00;98.00;;;;;;5112611;28;20463;-70
2021/09/11 03:33:01;;;;;;;3.40;2.17;;;19.00;98.00;;;;;;5112497;28;20485;-70
2021/09/11 03:35:28;;;;;;;1.50;1.40;;;19.00;98.00;;;;;;5112529;28;20482;-70
2021/09/11 03:37:55;;;;;;;2.07;1.60;;;18.90;98.00;;;;;;5113105;28;20796;-69
2021/09/11 03:40:23;;;;;;;1.70;1.70;;;18.90;98.00;;;;;;5113679;28;20452;-69
2021/09/11 03:42:52;;;;;;;2.27;1.60;;;19.00;98.00;;;;;;5113033;28;21035;-67
2021/09/11 03:45:19;;;;;;;2.77;1.87;;;19.00;98.00;;;;;;5113246;28;20925;-69
2021/09/11 03:47:46;;;;;;;2.03;1.60;;;18.90;98.00;;;;;;5113778;28;21017;-69
2021/09/11 03:50:13;;;;;;;2.50;1.70;;;18.80;98.00;;;;;;5112193;28;20453;-69
2021/09/11 03:52:45;;;;;;;4.63;2.10;;;18.70;98.00;;;;;;5112353;28;20519;-68
2021/09/11 03:55:12;;;;;;;1.97;1.57;;;18.90;98.00;;;;;;5112224;28;20486;-69
2021/09/11 03:57:40;;;;;;;2.13;1.73;;;18.80;98.00;;;;;;5112359;28;20889;-67
2021/09/11 04:00:10;;;;;;;1.93;1.40;;;18.70;98.00;;;;;;5112360;28;20462;-69
2021/09/11 04:02:37;;;;;;;1.47;1.40;;;18.70;98.00;;;;;;5112535;27;20493;-70
2021/09/11 04:05:05;;;;;;;1.80;1.73;;;18.70;98.00;;;;;;5112451;28;20462;-68
2021/09/11 04:07:32;;;;;;;2.03;1.80;;;18.70;98.00;;;;;;5112205;28;20454;-68
2021/09/11 04:09:59;;;;;;;3.20;1.80;;;18.60;98.00;;;;;;5112114;28;20494;-70
2021/09/11 04:12:26;;;;;;;1.60;1.60;;;18.70;98.00;;;;;;5112062;28;20505;-68
2021/09/11 04:14:53;;;;;;;1.60;1.50;;;18.70;98.00;;;;;;5111917;28;20565;-69
2021/09/11 04:17:21;;;;;;;4.10;2.30;;;18.70;98.00;;;;;;5111942;28;20455;-69
2021/09/11 04:19:48;;;;;;;3.47;1.77;;;18.80;98.00;;;;;;5111904;28;20459;-67
2021/09/11 04:22:15;;;;;;;2.30;2.03;;;18.80;98.00;;;;;;5111745;28;20953;-69
2021/09/11 04:24:42;;;;;;;3.57;1.90;;;18.80;98.00;;;;;;5111934;28;20941;-69
2021/09/11 04:27:09;;;;;;;2.00;1.60;;;18.80;98.00;;;;;;5111694;28;20512;-68
2021/09/11 04:29:36;;;;;;;1.67;1.60;;;18.80;98.00;;;;;;5111557;28;20886;-68
2021/09/11 04:32:05;;;;;;;2.90;1.70;;;18.70;98.00;;;;;;5111624;28;20540;-70
2021/09/11 04:34:33;;;;;;;1.57;1.40;;;18.70;98.00;;;;;;5111758;28;20587;-69
2021/09/11 04:37:00;;;;;;;2.03;1.87;;;18.70;98.00;;;;;;5111491;28;20531;-70
2021/09/11 04:39:27;;;;;;;2.47;1.83;;;18.70;98.00;;;;;;5111573;28;20451;-69
2021/09/11 04:41:56;;;;;;;3.00;1.90;;;18.60;98.00;;;;;;5111351;28;20490;-70
2021/09/11 04:44:23;;;;;;;2.23;1.83;;;18.50;98.00;;;;;;5111768;28;20621;-69
2021/09/11 04:46:53;;;;;;;2.83;2.00;;;18.40;98.00;;;;;;5111339;28;20494;-69
2021/09/11 04:49:20;;;;;;;1.87;1.47;;;18.40;98.00;;;;;;5111234;28;20491;-69
2021/09/11 04:51:49;;;;;;;2.13;1.70;;;18.40;98.00;;;;;;5111294;28;20492;-69
2021/09/11 04:54:16;;;;;;;4.27;2.40;;;18.40;98.00;;;;;;5110113;28;20478;-68
2021/09/11 04:56:43;;;;;;;1.30;1.30;;;18.40;98.00;;;;;;5111057;28;20537;-70
2021/09/11 04:59:10;;;;;;;3.20;2.10;;;18.30;98.00;;;;;;5111331;28;20459;-68
2021/09/11 05:01:37;;;;;;;1.47;1.40;;;18.30;98.00;;;;;;5110575;28;20463;-71
2021/09/11 05:04:04;;;;;;;2.20;1.80;;;18.40;98.00;;;;;;5111351;28;20491;-69
2021/09/11 05:06:31;;;;;;;2.33;2.07;;;18.50;98.00;;;;;;5111225;28;20461;-70
2021/09/11 05:09:00;;;;;;;1.90;1.70;;;18.50;98.00;;;;;;5111178;28;20483;-68
2021/09/11 05:11:27;;;;;;;2.27;1.73;;;18.60;98.00;;;;;;5110950;28;20809;-69
2021/09/11 05:13:54;;;;;;;2.13;1.83;;;18.60;98.00;;;;;;5111183;28;20512;-68
2021/09/11 05:16:21;;;;;;;2.00;1.87;;;18.60;98.00;;;;;;5111013;28;20514;-68
2021/09/11 05:18:48;;;;;;;2.03;1.60;;;18.50;98.00;;;;;;5111490;28;20925;-68
2021/09/11 05:21:15;;;;;;;2.67;1.63;;;18.50;98.00;;;;;;5110778;28;20447;-69
2021/09/11 05:23:42;;;;;;;2.80;2.30;;;18.40;98.00;;;;;;5111388;28;20455;-68
2021/09/11 05:26:10;;;;;;;1.73;1.67;;;18.40;98.00;;;;;;5111009;28;20491;-68
2021/09/11 05:28:37;;;;;;;2.37;1.83;;;18.40;98.00;;;;;;5111270;28;20895;-70
2021/09/11 05:31:04;;;;;;;2.63;1.97;;;18.60;98.00;;;;;;5110721;28;20512;-68
2021/09/11 05:33:31;;;;;;;2.40;1.60;;;18.60;98.00;;;;;;5110910;28;20462;-69
2021/09/11 05:35:58;;;;;;;1.57;1.47;;;18.70;98.00;;;;;;5110846;28;20482;-69
2021/09/11 05:38:25;;;;;;;2.27;1.63;;;18.70;98.00;;;;;;5110919;28;20479;-70
2021/09/11 05:40:52;;;;;;;2.17;1.80;;;18.80;98.00;;;;;;5110965;28;20881;-68
2021/09/11 05:43:20;;;;;;;3.77;2.37;;;18.90;98.00;;;;;;5110636;28;20512;-69
2021/09/11 05:45:49;;;;;;;1.93;1.37;;;19.10;98.00;;;;;;5110791;28;20473;-69
2021/09/11 05:48:16;;;;;;;1.97;1.67;;;19.10;98.00;;;;;;5109332;28;20455;-69
2021/09/11 05:50:44;;;;;;;1.57;1.50;;;19.30;98.00;;;;;;5110811;28;20878;-67
2021/09/11 05:53:11;;;;;;;1.40;1.37;;;19.40;98.00;;;;;;5110804;28;20482;-69
2021/09/11 05:55:38;;;;;;;1.80;1.50;;;19.40;98.00;;;;;;5110550;28;20485;-68
2021/09/11 05:58:05;;;;;;;1.60;1.50;;;19.40;98.00;;;;;;5110627;28;20460;-69
2021/09/11 06:00:34;;;;;;;1.80;1.50;;;19.40;98.00;;;;;;5110436;28;20447;-69
2021/09/11 06:03:01;;;;;;;1.40;1.30;;;19.40;98.00;;;;;;5110607;28;20499;-69
2021/09/11 06:05:28;;;;;;;2.33;1.60;;;19.30;98.00;;;;;;5110549;28;20897;-69
2021/09/11 06:07:55;;;;;;;1.80;1.40;;;19.20;98.00;;;;;;5110582;28;20508;-69
2021/09/11 06:10:22;;;;;;;1.60;1.50;;;18.90;98.00;;;;;;5110769;28;20455;-67
2021/09/11 06:12:49;;;;;;;1.70;1.60;;;18.80;98.00;;;;;;5112702;28;20483;-68
2021/09/11 06:15:15;;;;;;;1.50;1.40;;;18.80;98.00;;;;;;5114240;28;20479;-68
2021/09/11 06:17:44;;;;;;;1.70;1.67;;;18.60;98.00;;;;;;5114206;28;20451;-70
2021/09/11 06:20:13;;;;;;;2.40;1.90;;;18.60;98.00;;;;;;5112806;28;20447;-68
2021/09/11 06:22:40;;;;;;;1.93;1.47;;;18.50;98.00;;;;;;5114074;28;20957;-68
2021/09/11 06:25:08;;;;;;;1.60;1.50;;;18.50;98.00;;;;;;5112806;28;20508;-68
2021/09/11 06:27:36;;;;;;;2.27;1.77;;;18.50;98.00;;;;;;5113870;28;20866;-69
2021/09/11 06:30:03;;;;;;;1.60;1.20;;;18.50;98.00;;;;;;5114075;28;20888;-67
2021/09/11 06:32:31;;;;;;;1.60;1.43;;;18.60;98.00;;;;;;5113930;28;20523;-68
2021/09/11 06:34:59;;;;;;;1.50;1.40;;;18.50;98.00;;;;;;5113818;28;20542;-69
2021/09/11 06:37:26;;;;;;;1.50;1.30;;;18.50;98.00;;;;;;5113695;28;20493;-68
2021/09/11 06:39:53;;;;;;;1.67;1.63;;;18.60;98.00;;;;;;5113814;28;20455;-70
2021/09/11 06:42:20;;;;;;;1.60;1.40;;;18.80;98.00;;;;;;5113830;28;20487;-69
2021/09/11 06:44:48;;;;;;;1.40;1.27;;;18.80;98.00;;;;;;5113627;28;20511;-70
2021/09/11 06:47:15;;;;;;;2.47;1.47;;;18.80;98.00;;;;;;5113778;28;20751;-69
2021/09/11 06:49:43;;;;;;;1.47;1.43;;;18.80;98.00;;;;;;5113620;28;20501;-70
2021/09/11 06:52:11;;;;;;;1.30;1.30;;;18.80;98.00;;;;;;5113123;28;20487;-69
2021/09/11 06:54:38;;;;;;;1.60;1.33;;;18.90;98.00;;;;;;5113304;28;20451;-68
2021/09/11 06:57:05;;;;;;;2.20;1.60;;;19.00;98.00;;;;;;5112002;28;20920;-71
2021/09/11 06:59:33;;;;;;;2.27;1.80;;;18.80;98.00;;;;;;5113423;28;20491;-70
2021/09/11 07:02:00;;;;;;;1.60;1.50;;;18.60;98.00;;;;;;5112998;28;20451;-71
2021/09/11 07:04:27;;;;;;;1.70;1.47;;;18.50;98.00;;;;;;5112948;28;20483;-70
2021/09/11 07:06:53;;;;;;;1.33;1.27;;;18.40;98.00;;;;;;5113187;28;20812;-70
2021/09/11 07:09:22;;;;;;;2.80;1.97;;;18.40;98.00;;;;;;5112960;28;20495;-70
2021/09/11 07:11:49;;;;;;;2.03;1.73;;;18.50;98.00;;;;;;5113093;28;20869;-69
2021/09/11 07:14:16;;;;;;;1.90;1.87;;;18.60;98.00;;;;;;5113022;28;20486;-71
2021/09/11 07:16:44;;;;;;;2.17;1.67;;;18.70;98.00;;;;;;5113167;28;20475;-70
2021/09/11 07:19:11;;;;;;;1.73;1.53;;;18.80;98.00;;;;;;5112874;28;20542;-69
2021/09/11 07:21:38;;;;;;;1.50;1.30;;;18.80;98.00;;;;;;5112669;28;20542;-69
2021/09/11 07:24:05;;;;;;;1.40;1.37;;;18.90;98.00;;;;;;5112024;28;20840;-69
2021/09/11 07:26:34;;;;;;;1.50;1.40;;;18.90;98.00;;;;;;5112781;28;20447;-70
2021/09/11 07:29:02;;;;;;;1.93;1.60;;;19.00;98.00;;;;;;5112726;28;20546;-68
2021/09/11 07:31:29;;;;;;;2.50;1.70;;;19.00;98.00;;;;;;5111351;28;20544;-69
2021/09/11 07:33:56;;;;;;;1.63;1.60;;;18.90;98.00;;;;;;5112576;28;20494;-68
2021/09/11 07:36:23;;;;;;;1.37;1.30;;;19.00;98.00;;;;;;5112307;28;20523;-68
2021/09/11 07:38:51;;;;;;;1.67;1.53;;;18.90;98.00;;;;;;5112655;28;20446;-71
2021/09/11 07:41:18;;;;;;;1.77;1.37;;;18.90;98.00;;;;;;5112257;28;20469;-69
2021/09/11 07:43:46;;;;;;;1.20;1.20;;;19.10;98.00;;;;;;5112379;28;20459;-72
2021/09/11 07:46:13;;;;;;;1.60;1.40;;;19.10;98.00;;;;;;5100662;28;20452;-71
2021/09/11 07:48:40;;;;;;;2.33;1.50;;;19.10;98.00;;;;;;5103772;28;20536;-69
2021/09/11 07:51:07;;;;;;;1.87;1.20;;;19.10;98.00;;;;;;5087881;28;20492;-71
2021/09/11 07:53:35;;;;;;;1.40;1.33;;;19.10;98.00;;;;;;5091323;28;20505;-71
2021/09/11 07:56:02;;;;;;;1.60;1.47;;;19.20;98.00;;;;;;5096201;28;20595;-71
2021/09/11 07:58:29;;;;;;;1.20;1.13;;;19.20;98.00;;;;;;5099876;28;20500;-69
2021/09/11 08:13:18;;;;;;;1.30;1.30;;;19.30;98.00;;;;;;5105715;27;20545;-72
2021/09/11 08:15:45;;;;;;;2.03;1.10;;;19.80;98.00;;;;;;5085241;28;20947;-72
2021/09/11 08:18:13;;;;;;;1.57;1.53;;;19.90;98.00;;;;;;5085035;28;20539;-72
2021/09/11 08:20:39;;;;;;;1.70;1.60;;;20.10;98.00;;;;;;5085014;28;20540;-73
2021/09/11 08:23:07;;;;;;;1.50;1.40;;;20.00;98.00;;;;;;5085011;28;20554;-70
2021/09/11 08:25:34;;;;;;;1.50;1.40;;;20.00;98.00;;;;;;5085113;28;20483;-71
2021/09/11 08:28:01;;;;;;;1.50;1.50;;;20.10;98.00;;;;;;5085001;28;20993;-71
2021/09/11 08:30:29;;;;;;;1.80;1.60;;;20.10;98.00;;;;;;5084715;28;20848;-73
2021/09/11 08:32:57;;;;;;;1.60;1.30;;;20.00;98.00;;;;;;5085068;28;20449;-73
2021/09/11 08:35:23;;;;;;;1.50;1.30;;;20.10;98.00;;;;;;5084671;28;20468;-75
2021/09/11 08:37:50;;;;;;;1.40;1.30;;;20.20;98.00;;;;;;5086416;28;20480;-74
2021/09/11 08:40:19;;;;;;;1.73;1.50;;;20.30;98.00;;;;;;5084675;28;21012;-74
2021/09/11 08:42:46;;;;;;;1.80;1.60;;;20.40;98.00;;;;;;5084498;28;20924;-73
2021/09/11 08:45:14;;;;;;;1.30;1.30;;;20.40;98.00;;;;;;5083115;28;20935;-74
2021/09/11 08:47:48;;;;;;;1.27;1.10;;;20.40;98.00;;;;;;5084396;28;20539;-76
2021/09/11 08:50:18;;;;;;;1.60;1.50;;;20.40;98.00;;;;;;5068858;28;20507;-72
2021/09/11 08:52:46;;;;;;;1.53;1.30;;;20.60;98.00;;;;;;5087148;28;20452;-71
2021/09/11 08:55:14;;;;;;;1.63;1.40;;;20.70;98.00;;;;;;5086980;28;20951;-73
2021/09/11 08:57:56;;;;;;;1.30;1.20;;;20.70;98.00;;;;;;5087072;28;20831;-75
2021/09/11 09:00:40;;;;;;;1.97;1.50;;;20.60;98.00;;;;;;5086951;28;20537;-73
2021/09/11 09:03:34;;;;;;;1.30;1.20;;;20.70;98.00;;;;;;5087094;28;20793;-73
2021/09/11 09:06:21;;;;;;;1.30;1.10;;;20.60;98.00;;;;;;5086915;28;20455;-72
2021/09/11 09:08:51;;;;;;;1.83;1.40;;;20.70;98.00;;;;;;5070503;28;20456;-71
2021/09/11 09:11:25;;;;;;;1.20;1.20;;;20.80;98.00;;;;;;5086766;28;20491;-72
2021/09/11 09:14:00;;;;;;;1.57;1.50;;;21.20;98.00;;;;;;5075290;28;20461;-72
2021/09/11 09:16:29;;;;;;;1.70;1.50;;;21.20;98.00;;;;;;5073555;28;20539;-74
2021/09/11 09:18:58;;;;;;;2.40;1.87;;;21.30;98.00;;;;;;5073624;28;20488;-72
2021/09/11 09:21:27;;;;;;;1.50;1.30;;;21.10;98.00;;;;;;5073436;28;20512;-72
2021/09/11 09:23:56;;;;;;;2.23;1.50;;;20.90;98.00;;;;;;5073641;28;20596;-71
2021/09/11 09:26:24;;;;;;;1.50;1.27;;;20.90;98.00;;;;;;5073424;28;20526;-73
2021/09/11 09:29:09;;;;;;;1.30;1.30;;;20.90;98.00;;;;;;5073462;28;20461;-73
2021/09/11 09:31:37;;;;;;;1.30;1.30;;;21.00;98.00;;;;;;5073337;28;20449;-72
2021/09/11 09:34:06;;;;;;;1.60;1.53;;;21.00;98.00;;;;;;5073203;28;20449;-72
2021/09/11 09:36:38;;;;;;;1.73;1.40;;;21.10;98.00;;;;;;5073143;28;20937;-72
2021/09/11 09:39:07;;;;;;;2.07;1.53;;;21.10;98.00;;;;;;5072995;28;20860;-72
2021/09/11 09:41:45;;;;;;;1.60;1.33;;;21.00;98.00;;;;;;5073118;28;20870;-73
2021/09/11 09:44:13;;;;;;;1.70;1.43;;;21.00;98.00;;;;;;5072990;28;20481;-72
2021/09/11 09:46:41;;;;;;;2.67;1.67;;;21.10;98.00;;;;;;5072883;28;20861;-72
2021/09/11 09:49:10;;;;;;;1.60;1.43;;;21.10;98.00;;;;;;5072620;28;20875;-74
2021/09/11 09:51:38;;;;;;;1.60;1.40;;;21.10;98.00;;;;;;5072711;28;20869;-74
2021/09/11 09:54:05;;;;;;;1.67;1.40;;;21.10;98.00;;;;;;5072440;28;20860;-73
2021/09/11 09:56:34;;;;;;;1.43;1.33;;;21.20;98.00;;;;;;5054870;28;20504;-73
2021/09/11 09:59:01;;;;;;;1.50;1.33;;;21.40;98.00;;;;;;5072536;28;20539;-73
2021/09/11 10:01:29;;;;;;;1.43;1.37;;;21.50;98.00;;;;;;5072346;28;20523;-71
2021/09/11 10:03:56;;;;;;;1.67;1.50;;;21.60;98.00;;;;;;5072617;28;20453;-72
2021/09/11 10:06:29;;;;;;;2.53;1.60;;;21.60;98.00;;;;;;5072508;28;20493;-72
2021/09/11 10:08:59;;;;;;;1.53;1.43;;;21.80;98.00;;;;;;5054866;28;20499;-72
2021/09/11 10:11:34;;;;;;;1.57;1.30;;;21.90;98.00;;;;;;5071906;28;20552;-72
2021/09/11 10:14:02;;;;;;;1.70;1.47;;;22.00;98.00;;;;;;5072356;28;20961;-74
2021/09/11 10:16:35;;;;;;;2.70;1.73;;;22.20;98.00;;;;;;5072244;28;20481;-73
2021/09/11 10:19:16;;;;;;;1.90;1.60;;;22.40;98.00;;;;;;5072046;28;20448;-72
2021/09/11 10:21:44;;;;;;;1.30;1.20;;;22.50;98.00;;;;;;5071895;28;20492;-72
2021/09/11 10:24:29;;;;;;;1.53;1.33;;;22.50;98.00;;;;;;5071219;28;20546;-73
2021/09/11 10:26:58;;;;;;;1.77;1.30;;;22.70;98.00;;;;;;5071957;28;20829;-73
2021/09/11 10:29:56;;;;;;;1.67;1.40;;;22.90;98.00;;;;;;5071944;28;20975;-74
2021/09/11 10:32:26;;;;;;;1.60;1.57;;;23.30;98.00;;;;;;5071768;28;20457;-72
2021/09/11 10:34:56;;;;;;;1.90;1.70;;;23.60;98.00;;;;;;5071747;28;20461;-72
2021/09/11 10:37:45;;;;;;;2.17;1.50;;;23.80;98.00;;;;;;5071918;28;20460;-73
2021/09/11 10:40:21;;;;;;;1.47;1.47;;;24.10;98.00;;;;;;5072038;28;20514;-72
2021/09/11 10:43:31;;;;;;;2.07;1.40;;;24.20;98.00;;;;;;5053940;28;21085;-74
2021/09/11 10:46:09;;;;;;;1.83;1.40;;;24.30;98.00;;;;;;5071331;28;20469;-75
2021/09/11 10:48:51;;;;;;;2.47;1.87;;;24.70;98.00;;;;;;5071778;28;20499;-72
2021/09/11 10:51:29;;;;;;;1.43;1.33;;;24.80;98.00;;;;;;5071561;28;20465;-73
2021/09/11 10:54:07;;;;;;;1.93;1.50;;;24.90;98.00;;;;;;5071373;28;20537;-74
2021/09/11 10:56:37;;;;;;;1.73;1.63;;;25.30;98.00;;;;;;5071355;28;20532;-72
2021/09/11 10:59:29;;;;;;;1.77;1.47;;;25.30;98.00;;;;;;5071483;28;20508;-73
2021/09/11 11:02:11;;;;;;;3.10;1.80;;;25.20;98.00;;;;;;5070983;28;20538;-73
2021/09/11 11:04:41;;;;;;;2.20;1.63;;;25.00;98.00;;;;;;5071280;28;20468;-72
2021/09/11 11:07:09;;;;;;;1.67;1.33;;;24.60;98.00;;;;;;5071146;28;20506;-74
2021/09/11 11:09:52;;;;;;;2.50;1.73;;;24.40;98.00;;;;;;5071317;28;20457;-76
2021/09/11 11:12:24;;;;;;;1.50;1.40;;;24.00;98.00;;;;;;5071249;28;20500;-73
2021/09/11 11:14:59;;;;;;;2.03;1.70;;;23.80;98.00;;;;;;5071487;28;20510;-73
2021/09/11 11:17:27;;;;;;;1.90;1.70;;;23.80;98.00;;;;;;5071378;28;20448;-73
2021/09/11 11:19:55;;;;;;;2.00;1.40;;;23.90;98.00;;;;;;5071180;28;20488;-73
2021/09/11 11:22:28;;;;;;;1.90;1.60;;;23.80;98.00;;;;;;5053200;28;20530;-72
2021/09/11 11:24:57;;;;;;;1.67;1.50;;;23.90;98.00;;;;;;5072123;28;20527;-74
2021/09/11 11:27:26;;;;;;;2.07;1.50;;;24.40;98.00;;;;;;5072079;28;20496;-74
2021/09/11 11:29:55;;;;;;;1.67;1.50;;;24.40;98.00;;;;;;5071201;28;20553;-73
2021/09/11 11:32:25;;;;;;;2.13;1.40;;;24.50;98.00;;;;;;5072076;28;20931;-74
2021/09/11 11:34:55;;;;;;;2.27;1.57;;;25.10;98.00;;;;;;5053796;28;20456;-74
2021/09/11 11:37:23;;;;;;;1.87;1.53;;;25.50;98.00;;;;;;5070735;28;20496;-74
2021/09/11 11:39:50;;;;;;;2.00;1.80;;;26.00;98.00;;;;;;5070866;28;20966;-72
2021/09/11 11:42:25;;;;;;;1.57;1.50;;;26.20;98.00;;;;;;5070810;28;20538;-72
2021/09/11 11:44:54;;;;;;;2.13;1.50;;;26.10;98.00;;;;;;5053813;28;20467;-73
2021/09/11 11:47:42;;;;;;;2.30;1.83;;;25.80;98.00;;;;;;5071404;28;20452;-73
2021/09/11 11:50:16;;;;;;;1.83;1.60;;;26.00;98.00;;;;;;5070827;28;20507;-72
2021/09/11 11:52:52;;;;;;;1.57;1.53;;;26.30;98.00;;;;;;5070815;28;20863;-72
2021/09/11 11:55:22;;;;;;;1.60;1.50;;;26.30;98.00;;;;;;5070837;28;20460;-74
2021/09/11 11:57:51;;;;;;;1.90;1.60;;;26.20;98.00;;;;;;5070641;28;20449;-72
2021/09/11 12:00:19;;;;;;;2.50;1.90;;;25.70;98.00;;;;;;5036560;28;21141;-72
2021/09/11 12:02:47;;;;;;;1.80;1.57;;;25.30;98.00;;;;;;5070631;28;21069;-75
2021/09/11 12:05:21;;;;;;;2.80;1.83;;;24.90;98.00;;;;;;5070850;28;20474;-75
2021/09/11 12:07:59;;;;;;;2.03;1.60;;;24.60;98.00;;;;;;5070516;28;20453;-73
2021/09/11 12:10:27;;;;;;;1.93;1.87;;;24.50;98.00;;;;;;5070539;28;20453;-75
2021/09/11 12:12:58;;;;;;;1.93;1.73;;;24.50;98.00;;;;;;5052704;28;20594;-74
2021/09/11 12:15:27;;;;;;;2.07;1.80;;;24.40;98.00;;;;;;5070482;28;20456;-74
2021/09/11 12:17:57;;;;;;;1.60;1.40;;;24.20;98.00;;;;;;5070331;28;20460;-75
2021/09/11 12:20:25;;;;;;;1.97;1.60;;;24.20;98.00;;;;;;5070302;28;20798;-75
2021/09/11 12:23:06;;;;;;;2.13;1.53;;;24.10;98.00;;;;;;5070195;28;20485;-74
2021/09/11 12:25:53;;;;;;;1.70;1.50;;;23.80;98.00;;;;;;5070556;28;20564;-75
2021/09/11 12:28:49;;;;;;;2.90;1.63;;;23.60;98.00;;;;;;5070268;28;20456;-74
2021/09/11 12:31:29;;;;;;;1.93;1.50;;;23.40;98.00;;;;;;5070271;28;20457;-73
2021/09/11 12:33:58;;;;;;;1.70;1.53;;;23.10;98.00;;;;;;5070214;28;20797;-72
2021/09/11 12:36:30;;;;;;;1.60;1.40;;;22.50;98.00;;;;;;5066402;28;21017;-74
2021/09/11 12:38:59;;;;;;;1.80;1.60;;;22.10;98.00;;;;;;5067302;28;20514;-74
2021/09/11 12:41:26;;;;;;;1.80;1.47;;;22.10;98.00;;;;;;5067311;28;20484;-72
2021/09/11 12:43:55;;;;;;;1.83;1.53;;;22.00;98.00;;;;;;5067196;28;20519;-72
2021/09/11 12:46:29;;;;;;;1.70;1.40;;;21.90;98.00;;;;;;5067365;28;20480;-73
2021/09/11 12:48:58;;;;;;;1.97;1.40;;;21.60;98.00;;;;;;5070256;28;20476;-72
2021/09/11 12:51:25;;;;;;;1.83;1.30;;;21.40;98.00;;;;;;5051130;28;20509;-71
2021/09/11 12:53:53;;;;;;;1.60;1.50;;;21.40;98.00;;;;;;5069288;28;20884;-71
2021/09/11 12:56:23;;;;;;;2.20;1.33;;;21.30;98.00;;;;;;5070867;28;20861;-72
2021/09/11 12:58:51;;;;;;;2.07;1.63;;;21.30;98.00;;;;;;5071342;28;20962;-71
2021/09/11 13:01:20;;;;;;;1.20;1.10;;;21.30;98.00;;;;;;5070877;28;20836;-72
2021/09/11 13:03:47;;;;;;;2.03;1.73;;;21.30;98.00;;;;;;5071117;28;20500;-72
2021/09/11 13:08:56;;;;;;;1.97;1.50;;;21.30;98.00;;;;;;5070823;28;20546;-73
2021/09/11 13:11:25;;;;;;;2.40;1.60;;;21.30;98.00;;;;;;5070652;28;20543;-72
2021/09/11 13:13:52;;;;;;;1.30;1.20;;;21.40;98.00;;;;;;5069151;28;20453;-73